ADDS METAR Data INFO
IDs: Format: Raw Decoded Include TAF

Data at: 0431 UTC 21 Nov 2017

KCPT 210415Z AUTO 19008KT 10SM CLR 10/02 A2997 RMK AO2
KCPT 210355Z AUTO 17008KT 10SM CLR 11/02 A2996 RMK AO2
KCPT 210335Z AUTO 17008KT 10SM CLR 11/02 A2997 RMK AO2
KCPT 210315Z AUTO 17009KT 10SM CLR 11/02 A2996 RMK AO2
KCPT 210255Z AUTO 18009KT 10SM CLR 11/02 A2996 RMK AO2
KCPT 210235Z AUTO 18008KT 10SM CLR 11/02 A2996 RMK AO2
KCPT 210215Z AUTO 18009KT 10SM CLR 12/02 A2997 RMK AO2
KCPT 210155Z AUTO 18008KT 10SM CLR 12/01 A2998 RMK AO2
KCPT 210135Z AUTO 18009KT 10SM CLR 12/01 A2998 RMK AO2
KCPT 210115Z AUTO 18007KT 10SM CLR 12/00 A2999 RMK AO2
KCPT 210055Z AUTO 17009KT 10SM CLR 13/00 A2999 RMK AO2
KCPT 210035Z AUTO 17008KT 10SM CLR 13/00 A2999 RMK AO2
KCPT 210015Z AUTO 17009KT 10SM CLR 13/00 A3000 RMK AO2
KCPT 202355Z AUTO 17008KT 10SM CLR 14/01 A2999 RMK AO2
KCPT 202335Z AUTO 17007KT 10SM CLR 14/01 A3000 RMK AO2
KCPT 202315Z AUTO 17008KT 10SM CLR 15/01 A3001 RMK AO2
KCPT 202255Z AUTO 18009KT 10SM CLR 16/00 A3001 RMK AO2
KCPT 202235Z AUTO 18010KT 10SM CLR 17/00 A3001 RMK AO2
KCPT 202215Z AUTO 19012G18KT 10SM CLR 17/M00 A3001 RMK AO2
KCPT 202155Z AUTO 19014G20KT 10SM CLR 18/00 A3000 RMK AO2
KCPT 202135Z AUTO 20011G20KT 10SM CLR 18/M00 A3001 RMK AO2
KCPT 202115Z AUTO 19015G21KT 10SM CLR 18/M01 A3002 RMK AO2
KCPT 202055Z AUTO 18014G21KT 10SM CLR 18/M01 A3002 RMK AO2
KCPT 202035Z AUTO 19015KT 10SM CLR 18/M01 A3002 RMK AO2
KCPT 202015Z AUTO 18012G22KT 10SM CLR 18/M02 A3004 RMK AO2
KCPT 201955Z AUTO 19016KT 10SM CLR 18/M02 A3004 RMK AO2
KCPT 201935Z AUTO 19013G19KT 10SM CLR 18/M01 A3006 RMK AO2
KCPT 201915Z AUTO 19015G21KT 10SM CLR 17/M02 A3007 RMK AO2
KCPT 201855Z AUTO 20012G23KT 10SM CLR 17/M02 A3008 RMK AO2
KCPT 201835Z AUTO 19016G24KT 10SM CLR 17/M00 A3009 RMK AO2
KCPT 201815Z AUTO 18014G23KT 10SM CLR 16/00 A3012 RMK AO2
KCPT 201755Z AUTO 19012G22KT 10SM CLR 16/M00 A3014 RMK AO2
KCPT 201735Z AUTO 19012G20KT 10SM CLR 16/00 A3015 RMK AO2
KCPT 201715Z AUTO 21015KT 10SM CLR 15/M00 A3017 RMK AO2
KCPT 201655Z AUTO 21013KT 10SM CLR 15/00 A3018 RMK AO2
KCPT 201635Z AUTO 18009G16KT 10SM CLR 14/01 A3019 RMK AO2
KCPT 201615Z AUTO 18010KT 10SM CLR 13/02 A3020 RMK AO2 LTG DSNT N AND S
KCPT 201555Z AUTO 18011KT 10SM CLR 11/01 A3020 RMK AO2
KCPT 201535Z AUTO 17011KT 10SM CLR 10/00 A3021 RMK AO2
KCPT 201515Z AUTO 17009KT 10SM CLR 10/01 A3021 RMK AO2
KCPT 201455Z AUTO 17008KT 10SM CLR 09/01 A3022 RMK AO2
KCPT 201435Z AUTO 18005KT 10SM CLR 08/02 A3022 RMK AO2
KCPT 201415Z AUTO 17004KT 10SM CLR 07/03 A3021 RMK AO2
KCPT 201355Z AUTO 18005KT 10SM CLR 06/02 A3021 RMK AO2
KCPT 201335Z AUTO 18007KT 10SM CLR 05/01 A3021 RMK AO2
KCPT 201315Z AUTO 20006KT 10SM CLR 04/01 A3021 RMK AO2
KCPT 201255Z AUTO 21005KT 10SM CLR 04/03 A3021 RMK AO2
KCPT 201235Z AUTO 21005KT 10SM CLR 04/03 A3020 RMK AO2
KCPT 201215Z AUTO 19005KT 10SM CLR 04/02 A3019 RMK AO2
KCPT 201155Z AUTO 19003KT 10SM CLR 04/02 A3019 RMK AO2
KCPT 201135Z AUTO 00000KT 10SM CLR 04/01 A3019 RMK AO2
KCPT 201115Z AUTO 14004KT 10SM CLR 04/01 A3018 RMK AO2
KCPT 201055Z AUTO 00000KT 10SM CLR 05/01 A3019 RMK AO2
KCPT 201035Z AUTO 00000KT 10SM CLR 05/02 A3018 RMK AO2
KCPT 201015Z AUTO 18004KT 10SM CLR 05/02 A3019 RMK AO2
KCPT 200955Z AUTO 21004KT 10SM CLR 05/02 A3020 RMK AO2
KCPT 200935Z AUTO 19005KT 10SM CLR 06/00 A3020 RMK AO2
KCPT 200915Z AUTO 19005KT 10SM CLR 05/M00 A3020 RMK AO2
KCPT 200855Z AUTO 22004KT 10SM CLR 05/00 A3021 RMK AO2
KCPT 200835Z AUTO 23004KT 9SM CLR 04/00 A3021 RMK AO2
KCPT 200815Z AUTO 20004KT 10SM CLR 05/M01 A3021 RMK AO2
KCPT 200755Z AUTO 18005KT 10SM CLR 07/M02 A3021 RMK AO2
KCPT 200735Z AUTO 17005KT 10SM CLR 06/M02 A3022 RMK AO2
KCPT 200715Z AUTO 18004KT 10SM CLR 06/M01 A3023 RMK AO2
KCPT 200655Z AUTO 13003KT 9SM CLR 06/M01 A3023 RMK AO2
KCPT 200635Z AUTO 18003KT 10SM CLR 07/M01 A3024 RMK AO2
KCPT 200615Z AUTO 18003KT 10SM CLR 07/M01 A3024 RMK AO2
KCPT 200555Z AUTO 14003KT 10SM CLR 06/M01 A3023 RMK AO2
KCPT 200535Z AUTO 13004KT 10SM CLR 07/M01 A3024 RMK AO2
KCPT 200515Z AUTO 17003KT 10SM CLR 08/M02 A3025 RMK AO2
KCPT 200455Z AUTO 18004KT 10SM CLR 07/M01 A3025 RMK AO2
KCPT 200435Z AUTO 16003KT 10SM CLR 09/M02 A3025 RMK AO2
KCPT 200415Z AUTO 00000KT 10SM CLR 08/M02 A3025 RMK AO2
KCPT 200355Z AUTO 00000KT 10SM CLR 08/M01 A3025 RMK AO2
KCPT 200335Z AUTO 15005KT 10SM CLR 09/M02 A3024 RMK AO2
KCPT 200315Z AUTO 17004KT 10SM CLR 09/M02 A3024 RMK AO2
KCPT 200255Z AUTO 15006KT 10SM CLR 08/M01 A3025 RMK AO2
KCPT 200235Z AUTO 14006KT 10SM CLR 09/M00 A3025 RMK AO2
KCPT 200215Z AUTO 16003KT 10SM CLR 09/M01 A3025 RMK AO2
KCPT 200155Z AUTO 20003KT 10SM CLR 09/M01 A3025 RMK AO2
KCPT 200135Z AUTO 14003KT 10SM CLR 10/M02 A3025 RMK AO2
KCPT 200115Z AUTO 13004KT 10SM CLR 11/M02 A3025 RMK AO2
KCPT 200055Z AUTO 12004KT 10SM CLR 12/M02 A3025 RMK AO2
KCPT 200035Z AUTO 11005KT 10SM CLR 12/M02 A3025 RMK AO2
KCPT 200015Z AUTO 13004KT 10SM CLR 13/M03 A3025 RMK AO2
KCPT 192355Z AUTO 11004KT 10SM CLR 13/M03 A3025 RMK AO2
KCPT 192335Z AUTO 00000KT 10SM CLR 14/M03 A3025 RMK AO2
KCPT 192315Z AUTO 00000KT 10SM CLR 15/M03 A3025 RMK AO2
KCPT 192255Z AUTO 04003KT 10SM CLR 15/M03 A3025 RMK AO2
KCPT 192235Z AUTO 05004KT 10SM CLR 15/M03 A3025 RMK AO2
KCPT 192215Z AUTO 06004KT 10SM CLR 16/M03 A3026 RMK AO2
KCPT 192155Z AUTO 00000KT 10SM CLR 16/M04 A3026 RMK AO2
KCPT 192135Z AUTO 00000KT 10SM CLR 16/M04 A3026 RMK AO2
KCPT 192115Z AUTO 00000KT 10SM CLR 17/M04 A3027 RMK AO2
KCPT 192055Z AUTO 00000KT 10SM CLR 16/M04 A3027 RMK AO2
KCPT 192035Z AUTO 06004KT 10SM CLR 16/M04 A3028 RMK AO2
KCPT 192015Z AUTO 08005KT 10SM CLR 16/M04 A3029 RMK AO2
KCPT 191955Z AUTO 05004KT 10SM CLR 15/M04 A3030 RMK AO2
KCPT 191935Z AUTO 30003KT 10SM CLR 15/M04 A3031 RMK AO2
KCPT 191915Z AUTO 00000KT 6SM HZ CLR 14/M04 A3032 RMK AO2
KCPT 191855Z AUTO 01008KT 10SM CLR 15/M04 A3033 RMK AO2
KCPT 191835Z AUTO 00000KT 10SM CLR 15/M04 A3034 RMK AO2
KCPT 191815Z AUTO 00000KT 10SM CLR 14/M04 A3036 RMK AO2
KCPT 191755Z AUTO 03006KT 10SM CLR 15/M03 A3037 RMK AO2
KCPT 191735Z AUTO 04004KT 10SM CLR 14/M02 A3039 RMK AO2
KCPT 191715Z AUTO 09003KT 10SM CLR 14/M03 A3039 RMK AO2
KCPT 191655Z AUTO VRB04KT 10SM CLR 13/M01 A3040 RMK AO2
KCPT 191635Z AUTO 35004KT 10SM CLR 13/M01 A3041 RMK AO2